INFORMAÇÕES DO AERODROMO
Icao Aerodromo SCFT Nome do Aerodromo Futaleufú Airport Cidade Futaleufu
Código GPS SCFT Elevação Média 1148 ft Tipo de Aerodromo small_airport

INFORMAÇÃO DE PISTA
Pista 09 Comprimento da Pista 3110 ft Largura da Pista 59 ft
Elevação da Pista 0 ft Distância de Area de Escape da Pista 0 ft Orientação da Pista 103
Pista 27 Comprimento da Pista 3110 ft Largura da Pista 59 ft
Elevação da Pista 0 ft Distância de Area de Escape da Pista 0 ft Orientação da Pista 283

FREQUÊNCIAS DO AERODROMO
Tipo INFO Nome INFO Frequência 126.7 MHZ

INFORMAÇÕES DE NAVEGAÇÃO PRÓXIMO AO AERODROMO

Informações de Meteorologia(METAR atual)
METAR DE SCFT
ADDS - METARS form results

(0030 UTC 21 April 2019)
Data provider http://aviationweather.gov/metar/data/
 
METAR text: SCFT 210000Z AUTO 26002KT 9000 SKC 07/05 Q1020
Conditions at: SCFT (FUTALEUFU , CL) observed 0000 UTC 21 April 2019
Temperature: 7.0°C (45°F)
Dewpoint: 5.0°C (41°F) [RH = 87%]
Pressure (altimeter): 30.12 inches Hg (1020.0 mb)
Winds: from the W (260 degrees) at 2 MPH (2 knots; 1.0 m/s)
Visibility: 6 miles ( 9 km)
Ceiling: at least 12,000 feet AGL
Clouds: clear skies
Weather: no significant weather observed at this time

MAPA DO AERODROMO


Desenvolvido por Virtual Airlines Manager




Modificado por Servidor Brasil Amigos